createdAt,value
2022-12-01T00:03:56.858Z,19.48
2022-12-01T00:09:09.783Z,19.50
2022-12-01T00:14:03.821Z,19.49
2022-12-01T00:18:57.753Z,19.49
2022-12-01T00:23:53.679Z,19.27
2022-12-01T00:29:10.340Z,19.47
2022-12-01T00:34:08.117Z,19.49
2022-12-01T00:39:04.942Z,19.37
2022-12-01T00:43:58.341Z,19.50
2022-12-01T00:48:52.141Z,19.47
2022-12-01T00:53:46.909Z,19.40
2022-12-01T00:58:41.248Z,19.25
2022-12-01T01:03:35.701Z,19.28
2022-12-01T01:08:29.857Z,19.47
2022-12-01T01:13:23.939Z,19.44
2022-12-01T01:18:17.069Z,19.42
2022-12-01T01:23:10.800Z,19.44
2022-12-01T01:28:04.622Z,19.47
2022-12-01T01:32:58.123Z,19.44
2022-12-01T01:37:53.199Z,19.43
2022-12-01T01:42:46.911Z,19.36
2022-12-01T01:47:42.645Z,19.46
2022-12-01T01:52:41.764Z,19.43
2022-12-01T01:57:35.871Z,19.35
2022-12-01T02:02:29.781Z,19.34
2022-12-01T02:07:27.311Z,19.40
2022-12-01T02:12:29.678Z,19.44
2022-12-01T02:17:42.129Z,19.44
2022-12-01T02:23:02.553Z,19.46
2022-12-01T02:28:14.576Z,19.45
2022-12-01T02:33:24.278Z,19.43
2022-12-01T02:38:24.978Z,19.43
2022-12-01T02:43:30.721Z,19.46
2022-12-01T02:48:37.042Z,19.44
2022-12-01T02:53:31.481Z,19.29
2022-12-01T02:58:25.196Z,19.34
2022-12-01T03:03:56.335Z,19.45
2022-12-01T03:09:04.112Z,19.33
2022-12-01T03:14:02.222Z,19.43
2022-12-01T03:19:17.945Z,19.40
2022-12-01T03:24:16.053Z,19.39
2022-12-01T03:29:30.901Z,19.39
2022-12-01T03:34:57.062Z,19.40
2022-12-01T03:40:00.634Z,19.29
2022-12-01T03:45:01.285Z,19.40
2022-12-01T03:49:55.793Z,19.40
2022-12-01T03:55:03.533Z,19.43
2022-12-01T03:59:57.244Z,19.31
2022-12-01T04:04:51.154Z,19.45
2022-12-01T04:09:45.128Z,19.40
2022-12-01T04:14:38.794Z,19.31
2022-12-01T04:19:32.857Z,19.44
2022-12-01T04:24:26.617Z,19.27
2022-12-01T04:29:21.106Z,19.39
2022-12-01T04:34:14.080Z,19.30
2022-12-01T04:39:08.176Z,19.40
2022-12-01T04:44:01.455Z,19.30
2022-12-01T04:48:54.948Z,19.22
2022-12-01T04:53:49.262Z,19.40
2022-12-01T04:58:43.279Z,19.27
2022-12-01T05:03:41.262Z,19.40
2022-12-01T05:08:35.225Z,19.36
2022-12-01T05:13:28.599Z,19.33
2022-12-01T05:18:23.079Z,19.36
2022-12-01T05:23:17.414Z,19.25
2022-12-01T05:28:11.214Z,19.38
2022-12-01T05:33:05.559Z,19.28
2022-12-01T05:38:03.264Z,19.27
2022-12-01T05:43:00.163Z,19.38
2022-12-01T05:48:00.621Z,19.22
2022-12-01T05:52:53.781Z,19.32
2022-12-01T05:57:48.000Z,19.19
2022-12-01T06:02:42.707Z,19.30
2022-12-01T06:07:36.600Z,19.22
2022-12-01T06:12:29.794Z,19.32
2022-12-01T06:17:24.118Z,19.39
2022-12-01T06:22:17.671Z,19.31
2022-12-01T06:27:10.294Z,19.18
2022-12-01T06:32:03.918Z,19.41
2022-12-01T06:36:57.200Z,19.26
2022-12-01T06:41:50.306Z,19.38
2022-12-01T06:46:43.723Z,19.32
2022-12-01T06:51:36.710Z,19.21
2022-12-01T06:56:30.678Z,19.42
2022-12-01T07:01:24.488Z,19.31
2022-12-01T07:06:18.752Z,19.13
2022-12-01T07:11:15.409Z,18.89
2022-12-01T07:16:09.927Z,18.64
2022-12-01T07:21:04.764Z,18.53
2022-12-01T07:26:08.275Z,18.42
2022-12-01T07:31:13.117Z,18.42
2022-12-01T07:36:08.691Z,18.24
2022-12-01T07:41:22.492Z,18.20
2022-12-01T07:46:23.504Z,17.99
2022-12-01T07:51:17.653Z,18.11
2022-12-01T07:56:11.101Z,17.96
2022-12-01T08:01:12.257Z,17.97
2022-12-01T08:06:07.384Z,17.80
2022-12-01T08:11:03.737Z,18.16
2022-12-01T08:15:57.512Z,18.41
2022-12-01T08:20:51.937Z,18.49
2022-12-01T08:25:45.543Z,18.46
2022-12-01T08:30:39.193Z,18.63
2022-12-01T08:35:34.638Z,18.69
2022-12-01T08:40:28.067Z,18.63
2022-12-01T08:45:21.209Z,18.80
2022-12-01T08:50:15.268Z,18.81
2022-12-01T08:55:08.890Z,18.72
2022-12-01T09:00:03.353Z,18.72
2022-12-01T09:04:57.358Z,18.78
2022-12-01T09:09:51.415Z,18.74
2022-12-01T09:14:50.037Z,18.92
2022-12-01T09:19:45.008Z,18.84
2022-12-01T09:24:39.425Z,18.97
2022-12-01T09:29:33.301Z,18.98
2022-12-01T09:34:27.374Z,18.95
2022-12-01T09:39:21.414Z,19.02
2022-12-01T09:44:33.465Z,19.00
2022-12-01T09:49:51.137Z,19.04
2022-12-01T09:54:44.233Z,19.01
2022-12-01T09:59:42.221Z,18.95
2022-12-01T10:04:40.331Z,19.00
2022-12-01T10:09:36.609Z,19.03
2022-12-01T10:14:34.215Z,19.04
2022-12-01T10:19:33.092Z,19.09
2022-12-01T10:24:37.591Z,19.08
2022-12-01T10:29:48.018Z,19.11
2022-12-01T10:34:47.378Z,19.06
2022-12-01T10:39:44.031Z,19.07
2022-12-01T10:44:37.905Z,19.13
2022-12-01T10:49:42.001Z,18.88
2022-12-01T10:54:41.246Z,18.99
2022-12-01T10:59:55.889Z,19.09
2022-12-01T11:04:55.279Z,19.14
2022-12-01T11:09:59.010Z,19.13
2022-12-01T11:14:54.902Z,19.16
2022-12-01T11:19:49.147Z,19.06
2022-12-01T11:24:57.449Z,19.04
2022-12-01T11:29:55.407Z,19.08
2022-12-01T11:34:57.617Z,19.17
2022-12-01T11:39:52.262Z,19.06
2022-12-01T11:45:11.475Z,19.21
2022-12-01T11:50:25.346Z,19.20
2022-12-01T11:55:18.299Z,19.18
2022-12-01T12:00:14.855Z,19.06
2022-12-01T12:06:17.701Z,19.20
2022-12-01T12:11:30.545Z,19.20
2022-12-01T12:16:28.726Z,19.25
2022-12-01T12:21:58.108Z,19.29
2022-12-01T12:27:34.168Z,19.30
2022-12-01T12:32:52.272Z,19.31
2022-12-01T12:38:09.175Z,19.28
2022-12-01T12:43:25.037Z,19.30
2022-12-01T12:48:23.965Z,19.36
2022-12-01T12:53:23.728Z,19.34
2022-12-01T12:58:19.576Z,19.36
2022-12-01T13:04:07.718Z,19.34
2022-12-01T13:09:12.021Z,19.21
2022-12-01T13:14:16.048Z,19.35
2022-12-01T13:19:27.668Z,19.36
2022-12-01T13:24:24.376Z,19.22
2022-12-01T13:29:22.114Z,19.24
2022-12-01T13:34:32.878Z,19.29
2022-12-01T13:39:29.107Z,19.21
2022-12-01T13:44:33.549Z,19.24
2022-12-01T13:49:58.905Z,19.16
2022-12-01T13:55:10.575Z,19.32
2022-12-01T14:00:21.500Z,19.33
2022-12-01T14:05:24.045Z,19.32
2022-12-01T14:10:30.745Z,19.33
2022-12-01T14:15:43.162Z,19.22
2022-12-01T14:20:46.342Z,19.25
2022-12-01T14:25:40.750Z,19.33
2022-12-01T14:30:40.076Z,19.34
2022-12-01T14:35:35.247Z,19.13
2022-12-01T14:40:31.320Z,19.22
2022-12-01T14:46:06.931Z,19.33
2022-12-01T14:51:15.859Z,19.33
2022-12-01T14:56:13.074Z,19.28
2022-12-01T15:01:45.767Z,19.33
2022-12-01T15:07:18.497Z,19.34
2022-12-01T15:12:40.878Z,19.24
2022-12-01T15:17:37.748Z,19.33
2022-12-01T15:22:33.193Z,19.31
2022-12-01T15:27:31.825Z,19.32
2022-12-01T15:32:27.730Z,19.21
2022-12-01T15:37:24.722Z,19.21
2022-12-01T15:42:26.865Z,19.22
2022-12-01T15:47:56.271Z,19.32
2022-12-01T15:52:51.206Z,19.33
2022-12-01T15:57:47.470Z,19.34
2022-12-01T16:02:41.148Z,19.21
2022-12-01T16:08:11.300Z,19.30
2022-12-01T16:12:50.269Z,19.32
2022-12-01T16:17:50.475Z,19.31
2022-12-01T16:22:47.734Z,19.12
2022-12-01T16:27:41.954Z,19.20
2022-12-01T16:32:37.327Z,19.20
2022-12-01T16:37:30.567Z,19.34
2022-12-01T16:42:24.399Z,19.39
2022-12-01T16:47:22.534Z,19.44
2022-12-01T16:52:42.985Z,19.35
2022-12-01T16:57:29.936Z,19.50
2022-12-01T17:02:22.799Z,19.38
2022-12-01T17:07:16.423Z,19.56
2022-12-01T17:12:14.261Z,19.49
2022-12-01T17:17:07.970Z,19.62
2022-12-01T17:22:02.095Z,19.59
2022-12-01T17:26:55.876Z,19.60
2022-12-01T17:31:50.456Z,19.49
2022-12-01T17:36:42.950Z,19.63
2022-12-01T17:41:36.733Z,19.67
2022-12-01T17:46:30.643Z,19.69
2022-12-01T17:51:24.879Z,19.59
2022-12-01T17:56:18.034Z,19.48
2022-12-01T18:01:31.661Z,19.71
2022-12-01T18:06:26.030Z,19.71
2022-12-01T18:11:20.080Z,19.64
2022-12-01T18:16:17.186Z,19.81
2022-12-01T18:21:17.681Z,19.86
2022-12-01T18:26:16.098Z,19.80
2022-12-01T18:31:12.532Z,19.97
2022-12-01T18:36:27.968Z,20.02
2022-12-01T18:41:24.972Z,19.96
2022-12-01T18:46:19.929Z,19.82
2022-12-01T18:51:13.565Z,19.81
2022-12-01T18:56:11.687Z,19.83
2022-12-01T19:01:21.471Z,19.91
2022-12-01T19:06:15.101Z,19.92
2022-12-01T19:11:09.137Z,19.77
2022-12-01T19:16:11.612Z,19.76
2022-12-01T19:21:06.993Z,19.75
2022-12-01T19:25:59.697Z,19.01
2022-12-01T19:30:52.607Z,18.59
2022-12-01T19:35:45.118Z,18.49
2022-12-01T19:40:39.421Z,18.29
2022-12-01T19:45:33.488Z,17.94
2022-12-01T19:50:27.480Z,18.63
2022-12-01T19:55:20.832Z,18.94
2022-12-01T20:00:16.573Z,18.98
2022-12-01T20:05:10.910Z,19.19
2022-12-01T20:10:05.113Z,19.17
2022-12-01T20:14:58.449Z,19.11
2022-12-01T20:19:51.736Z,19.29
2022-12-01T20:24:46.270Z,19.25
2022-12-01T20:29:40.113Z,19.13
2022-12-01T20:34:38.135Z,19.20
2022-12-01T20:39:36.113Z,19.27
2022-12-01T20:44:30.495Z,19.24
2022-12-01T20:49:24.302Z,19.38
2022-12-01T20:54:28.298Z,19.36
2022-12-01T20:59:23.668Z,19.43
2022-12-01T21:04:17.252Z,19.45
2022-12-01T21:09:10.303Z,19.39
2022-12-01T21:14:05.276Z,19.43
2022-12-01T21:19:11.786Z,19.39
2022-12-01T21:24:20.879Z,19.30
2022-12-01T21:29:22.399Z,19.43
2022-12-01T21:34:27.279Z,19.48
2022-12-01T21:39:23.968Z,19.41
2022-12-01T21:44:21.039Z,19.34
2022-12-01T21:49:15.459Z,19.47
2022-12-01T21:54:16.435Z,19.48
2022-12-01T21:59:16.175Z,19.34
2022-12-01T22:04:19.441Z,19.49
2022-12-01T22:09:35.538Z,19.50
2022-12-01T22:14:36.825Z,19.46
2022-12-01T22:19:42.766Z,19.41
2022-12-01T22:24:48.680Z,19.51
2022-12-01T22:29:46.067Z,19.53
2022-12-01T22:34:38.972Z,19.39
2022-12-01T22:39:36.165Z,19.44
2022-12-01T22:44:32.151Z,19.39
2022-12-01T22:49:25.692Z,19.53
2022-12-01T22:54:19.186Z,19.50
2022-12-01T22:59:23.039Z,19.52
2022-12-01T23:04:25.661Z,19.52
2022-12-01T23:09:18.865Z,19.34
2022-12-01T23:14:20.282Z,19.43
2022-12-01T23:19:14.766Z,19.46
2022-12-01T23:24:10.997Z,19.55
2022-12-01T23:29:04.282Z,19.46
2022-12-01T23:33:57.633Z,19.50
2022-12-01T23:38:55.771Z,19.40
2022-12-01T23:43:49.757Z,19.51
2022-12-01T23:48:49.811Z,19.40
2022-12-01T23:53:44.031Z,19.51
2022-12-01T23:58:37.378Z,19.53
